Time;durP1;ratioP1;P1;durP2;ratioP2;P2;SDS_P1;SDS_P2;PMS_P1;PMS_P2;Temp;Humidity;BMP_temperature;BMP_pressure;BME280_temperature;BME280_humidity;BME280_pressure;Samples;Min_cycle;Max_cycle;Signal;HPM_P1;HPM_P2
2021/08/07 00:00:26;;;;;;;4.57;3.40;;;16.30;97.30;;;;;;5083438;28;20178;-82
2021/08/07 00:02:52;;;;;;;8.13;3.50;;;16.20;97.30;;;;;;5082896;28;20252;-82
2021/08/07 00:05:17;;;;;;;4.23;3.40;;;16.20;97.30;;;;;;5101242;28;20170;-83
2021/08/07 00:07:43;;;;;;;5.43;3.40;;;16.20;97.30;;;;;;5082926;28;20170;-83
2021/08/07 00:10:09;;;;;;;4.60;3.10;;;16.20;97.30;;;;;;5082438;28;20572;-82
2021/08/07 00:12:37;;;;;;;5.97;3.60;;;16.20;97.30;;;;;;5101017;28;20222;-82
2021/08/07 00:15:04;;;;;;;6.67;3.37;;;16.20;97.30;;;;;;5083060;28;20273;-82
2021/08/07 00:17:30;;;;;;;6.43;3.50;;;16.20;97.30;;;;;;5070144;28;20424;-82
2021/08/07 00:19:55;;;;;;;3.47;2.50;;;16.20;97.30;;;;;;5063836;28;20515;-82
2021/08/07 00:22:21;;;;;;;5.43;3.20;;;16.20;97.30;;;;;;5063226;28;20249;-82
2021/08/07 00:24:47;;;;;;;5.27;3.33;;;16.20;97.30;;;;;;5063447;28;20198;-82
2021/08/07 00:27:13;;;;;;;4.87;3.67;;;16.20;97.30;;;;;;5064130;28;20176;-82
2021/08/07 00:29:38;;;;;;;4.80;3.50;;;16.20;97.30;;;;;;5064198;28;20954;-81
2021/08/07 00:32:05;;;;;;;4.17;3.00;;;16.20;97.30;;;;;;5062496;28;20199;-82
2021/08/07 00:34:30;;;;;;;9.70;3.93;;;16.20;97.30;;;;;;5081099;28;20174;-82
2021/08/07 00:36:58;;;;;;;7.57;3.43;;;16.20;97.30;;;;;;5080170;28;20409;-82
2021/08/07 00:39:24;;;;;;;5.50;3.50;;;16.20;97.30;;;;;;5063715;28;20538;-82
2021/08/07 00:41:49;;;;;;;6.40;3.50;;;16.20;97.30;;;;;;5062699;28;20465;-82
2021/08/07 00:44:15;;;;;;;4.53;3.37;;;16.20;97.30;;;;;;5063332;28;20183;-83
2021/08/07 00:46:40;;;;;;;8.70;3.40;;;16.20;97.30;;;;;;5063346;28;20186;-82
2021/08/07 00:49:06;;;;;;;10.37;3.37;;;16.20;97.30;;;;;;5063535;28;20183;-82
2021/08/07 00:51:32;;;;;;;6.93;3.27;;;16.20;97.30;;;;;;5063466;28;20668;-82
2021/08/07 00:53:59;;;;;;;6.70;3.60;;;16.20;97.30;;;;;;5063918;28;20231;-82
2021/08/07 00:56:24;;;;;;;9.27;2.80;;;16.30;97.30;;;;;;5063625;28;20420;-82
2021/08/07 00:58:50;;;;;;;13.50;3.50;;;16.30;97.30;;;;;;5061260;28;20413;-82
2021/08/07 01:01:16;;;;;;;4.00;2.77;;;16.30;97.30;;;;;;5064103;28;20565;-82
2021/08/07 01:03:46;;;;;;;4.77;3.23;;;16.30;97.30;;;;;;5063324;28;20177;-82
2021/08/07 01:06:30;;;;;;;6.60;3.10;;;16.30;97.30;;;;;;5063762;28;20506;-82
2021/08/07 01:09:20;;;;;;;5.03;3.20;;;16.30;97.30;;;;;;5080898;28;20473;-82
2021/08/07 01:11:54;;;;;;;3.40;2.80;;;16.20;97.30;;;;;;5053744;28;20472;-82
2021/08/07 01:14:24;;;;;;;5.60;3.20;;;16.20;97.30;;;;;;5063295;28;20485;-82
2021/08/07 01:16:52;;;;;;;4.33;2.73;;;16.10;97.30;;;;;;5071314;28;20451;-81
2021/08/07 01:19:18;;;;;;;5.33;3.10;;;16.10;97.30;;;;;;5100564;28;20416;-79
2021/08/07 01:21:50;;;;;;;9.87;3.20;;;16.10;97.30;;;;;;5082554;28;20555;-82
2021/08/07 01:24:26;;;;;;;4.50;3.07;;;16.00;97.30;;;;;;5101506;28;20404;-82
2021/08/07 01:26:55;;;;;;;6.80;3.53;;;16.00;97.30;;;;;;5083536;28;20503;-82
2021/08/07 01:29:22;;;;;;;8.00;4.00;;;15.90;97.30;;;;;;5083335;28;20938;-81
2021/08/07 01:31:50;;;;;;;3.80;3.00;;;15.90;97.30;;;;;;5101435;28;20500;-81
2021/08/07 01:34:17;;;;;;;5.27;2.93;;;15.80;97.30;;;;;;5083467;28;20408;-82
2021/08/07 01:36:45;;;;;;;5.30;3.30;;;15.70;97.30;;;;;;5101797;28;20432;-82
2021/08/07 01:39:10;;;;;;;7.20;3.40;;;15.70;97.30;;;;;;5102599;28;20408;-82
2021/08/07 01:41:36;;;;;;;5.00;3.13;;;15.60;97.30;;;;;;5100973;28;20470;-82
2021/08/07 01:44:02;;;;;;;4.23;3.20;;;15.60;97.30;;;;;;5083147;28;20724;-82
2021/08/07 01:46:33;;;;;;;4.20;3.10;;;15.60;97.30;;;;;;5081326;28;20421;-82
2021/08/07 01:49:14;;;;;;;5.50;3.60;;;15.60;97.30;;;;;;5082419;28;20466;-82
2021/08/07 01:51:46;;;;;;;7.63;3.50;;;15.60;97.30;;;;;;5100645;28;20490;-82
2021/08/07 01:54:16;;;;;;;4.30;3.00;;;15.50;97.30;;;;;;5082198;28;20500;-82
2021/08/07 01:56:45;;;;;;;4.80;3.13;;;15.50;97.30;;;;;;5100012;28;20415;-82
2021/08/07 01:59:16;;;;;;;4.80;3.20;;;15.50;97.30;;;;;;5100318;28;20404;-81
2021/08/07 02:01:45;;;;;;;6.10;3.10;;;15.50;97.30;;;;;;5082308;28;20464;-81
2021/08/07 02:04:11;;;;;;;5.10;3.10;;;15.50;97.30;;;;;;5082937;28;20469;-81
2021/08/07 02:06:38;;;;;;;4.70;3.10;;;15.50;97.30;;;;;;5082862;28;20416;-82
2021/08/07 02:09:04;;;;;;;9.10;3.30;;;15.50;97.30;;;;;;5082000;28;20419;-80
2021/08/07 02:11:32;;;;;;;5.33;3.40;;;15.50;97.30;;;;;;5081952;28;20470;-82
2021/08/07 02:13:58;;;;;;;9.03;3.40;;;15.40;97.30;;;;;;5082391;28;20451;-82
2021/08/07 02:16:23;;;;;;;6.10;3.40;;;15.40;97.30;;;;;;5077945;28;20433;-82
2021/08/07 02:18:51;;;;;;;7.00;3.77;;;15.40;97.30;;;;;;5056754;28;20433;-82
2021/08/07 02:21:18;;;;;;;4.67;3.00;;;15.30;97.30;;;;;;5080177;28;20729;-81
2021/08/07 02:23:47;;;;;;;7.80;3.50;;;15.30;97.30;;;;;;5079074;28;20409;-82
2021/08/07 02:26:14;;;;;;;4.80;3.00;;;15.30;97.30;;;;;;5061407;28;20413;-82
2021/08/07 02:28:40;;;;;;;5.87;2.87;;;15.30;97.30;;;;;;5061429;28;20940;-81
2021/08/07 02:31:06;;;;;;;3.10;2.67;;;15.30;97.30;;;;;;5079860;28;20415;-82
2021/08/07 02:33:36;;;;;;;3.80;2.87;;;15.30;97.30;;;;;;5079088;28;20207;-82
2021/08/07 02:36:02;;;;;;;8.10;3.37;;;15.30;97.30;;;;;;5061650;28;20413;-82
2021/08/07 02:38:30;;;;;;;9.27;3.10;;;15.20;97.30;;;;;;5063539;28;20489;-81
2021/08/07 02:40:59;;;;;;;4.30;3.00;;;15.20;97.30;;;;;;5065432;28;20493;-79
2021/08/07 02:43:26;;;;;;;4.87;3.60;;;15.20;97.30;;;;;;5066273;28;20916;-82
2021/08/07 02:45:52;;;;;;;4.23;3.10;;;15.20;97.30;;;;;;5083616;28;20401;-81
2021/08/07 02:48:19;;;;;;;6.60;3.17;;;15.10;97.30;;;;;;5065731;28;20437;-81
2021/08/07 02:50:44;;;;;;;3.80;2.93;;;15.10;97.30;;;;;;5065826;28;20413;-82
2021/08/07 02:53:11;;;;;;;5.40;3.10;;;15.10;97.30;;;;;;5082970;28;20516;-81
2021/08/07 02:55:38;;;;;;;4.03;3.23;;;15.10;97.30;;;;;;5065966;28;20413;-82
2021/08/07 02:58:04;;;;;;;5.53;3.27;;;15.10;97.30;;;;;;5082618;28;20511;-81
2021/08/07 03:00:32;;;;;;;4.77;2.77;;;15.10;97.30;;;;;;5064736;28;20472;-81
2021/08/07 03:02:57;;;;;;;7.13;3.43;;;15.10;97.30;;;;;;5064510;28;20441;-82
2021/08/07 03:05:23;;;;;;;4.40;2.73;;;15.10;97.30;;;;;;5064531;28;20426;-81
2021/08/07 03:07:48;;;;;;;5.33;3.20;;;15.10;97.30;;;;;;5082508;28;20171;-82
2021/08/07 03:10:14;;;;;;;10.50;2.77;;;15.10;97.30;;;;;;5064383;28;20167;-80
2021/08/07 03:12:42;;;;;;;4.30;2.97;;;15.00;97.30;;;;;;5065013;28;20246;-82
2021/08/07 03:15:08;;;;;;;4.47;3.10;;;15.00;97.30;;;;;;5066045;28;20183;-82
2021/08/07 03:17:34;;;;;;;9.90;3.37;;;15.00;97.30;;;;;;5080096;28;20415;-82
2021/08/07 03:19:59;;;;;;;4.40;3.40;;;15.00;97.30;;;;;;5088537;28;20254;-82
2021/08/07 03:22:24;;;;;;;6.50;3.20;;;15.00;97.30;;;;;;5089014;28;20465;-82
2021/08/07 03:24:50;;;;;;;4.10;3.10;;;15.00;97.30;;;;;;5090559;28;20223;-82
2021/08/07 03:27:16;;;;;;;5.70;2.90;;;14.90;97.30;;;;;;5090778;28;20194;-82
2021/08/07 03:29:41;;;;;;;4.40;3.13;;;14.90;97.30;;;;;;5089997;28;20175;-82
2021/08/07 03:32:07;;;;;;;5.43;2.97;;;14.90;97.30;;;;;;5090235;28;20368;-81
2021/08/07 03:34:33;;;;;;;5.00;3.23;;;14.90;97.30;;;;;;5087564;28;20427;-82
2021/08/07 03:36:58;;;;;;;3.87;3.00;;;14.90;97.30;;;;;;5087726;28;20178;-82
2021/08/07 03:39:24;;;;;;;4.97;3.03;;;14.90;97.30;;;;;;5087250;28;20179;-81
2021/08/07 03:41:51;;;;;;;7.10;2.97;;;14.90;97.30;;;;;;5086946;28;20210;-81
2021/08/07 03:44:17;;;;;;;7.73;3.23;;;14.90;97.30;;;;;;5087217;28;20178;-81
2021/08/07 03:46:42;;;;;;;5.43;3.10;;;14.90;97.30;;;;;;5087350;28;20420;-81
2021/08/07 03:49:08;;;;;;;4.27;2.77;;;14.90;97.30;;;;;;5104899;28;20613;-82
2021/08/07 03:51:33;;;;;;;5.43;3.23;;;14.80;97.30;;;;;;5087050;28;20190;-81
2021/08/07 03:53:59;;;;;;;3.80;3.30;;;14.80;97.30;;;;;;5088018;28;20186;-82
2021/08/07 03:56:24;;;;;;;5.23;3.63;;;14.80;97.30;;;;;;5087475;28;20186;-82
2021/08/07 03:58:50;;;;;;;4.80;3.50;;;14.80;97.30;;;;;;5087566;28;20178;-82
2021/08/07 04:01:16;;;;;;;5.67;3.27;;;14.80;97.30;;;;;;5086555;28;20214;-83
2021/08/07 04:03:41;;;;;;;9.70;3.40;;;14.80;97.30;;;;;;5087971;28;20656;-81
2021/08/07 04:06:07;;;;;;;6.43;3.00;;;14.80;97.30;;;;;;5106129;28;20195;-81
2021/08/07 04:08:32;;;;;;;4.77;3.30;;;14.80;97.30;;;;;;5081947;28;20611;-82
2021/08/07 04:10:58;;;;;;;4.50;3.03;;;14.80;97.30;;;;;;5071458;28;20349;-81
2021/08/07 04:13:23;;;;;;;6.30;3.03;;;14.80;97.30;;;;;;5071813;28;20233;-82
2021/08/07 04:15:49;;;;;;;10.53;3.93;;;14.80;97.30;;;;;;5092660;28;20615;-82
2021/08/07 04:18:14;;;;;;;4.53;3.47;;;14.80;97.30;;;;;;5073282;28;20536;-82
2021/08/07 04:20:40;;;;;;;3.37;2.80;;;14.90;97.30;;;;;;5071085;28;20568;-81
2021/08/07 04:23:05;;;;;;;6.73;3.30;;;14.90;97.30;;;;;;5071523;28;20187;-81
2021/08/07 04:25:31;;;;;;;5.60;3.00;;;15.00;97.30;;;;;;5071500;28;20178;-81
2021/08/07 04:27:57;;;;;;;4.10;3.37;;;15.00;97.30;;;;;;5070952;28;20160;-81
2021/08/07 04:30:22;;;;;;;3.80;3.10;;;15.00;97.30;;;;;;5088124;28;20214;-82
2021/08/07 04:32:49;;;;;;;4.87;3.47;;;15.00;97.30;;;;;;5072667;28;20614;-81
2021/08/07 04:35:14;;;;;;;6.20;3.57;;;15.00;97.30;;;;;;5073199;28;20175;-80
2021/08/07 04:37:51;;;;;;;4.50;3.53;;;15.10;97.30;;;;;;5091894;28;20426;-81
2021/08/07 04:40:18;;;;;;;5.17;3.30;;;15.10;97.30;;;;;;5071028;28;20210;-81
2021/08/07 04:42:45;;;;;;;4.50;3.00;;;15.10;97.30;;;;;;5073423;28;20461;-81
2021/08/07 04:45:11;;;;;;;3.70;3.07;;;15.10;97.30;;;;;;5085924;28;20405;-81
2021/08/07 04:47:37;;;;;;;3.70;2.83;;;15.10;97.30;;;;;;5075929;28;20419;-81
2021/08/07 04:50:03;;;;;;;6.10;3.23;;;15.10;97.30;;;;;;5089928;28;20415;-81
2021/08/07 04:52:28;;;;;;;4.27;2.80;;;15.20;97.30;;;;;;5069516;28;20205;-81
2021/08/07 04:54:54;;;;;;;7.30;3.30;;;15.20;97.30;;;;;;5090246;28;20480;-81
2021/08/07 04:57:19;;;;;;;4.63;2.77;;;15.20;97.30;;;;;;5069454;28;20179;-81
2021/08/07 04:59:45;;;;;;;4.53;3.10;;;15.20;97.30;;;;;;5071624;28;20182;-81
2021/08/07 05:02:11;;;;;;;8.00;3.43;;;15.20;97.30;;;;;;5089652;28;20218;-81
2021/08/07 05:04:36;;;;;;;4.00;2.90;;;15.30;97.30;;;;;;5070205;28;20611;-82
2021/08/07 05:07:02;;;;;;;9.67;3.40;;;15.30;97.30;;;;;;5072315;28;20182;-82
2021/08/07 05:09:27;;;;;;;5.80;3.00;;;15.30;97.30;;;;;;5087098;28;20187;-81
2021/08/07 05:11:56;;;;;;;4.50;3.03;;;15.30;97.30;;;;;;5086939;28;20226;-82
2021/08/07 05:14:21;;;;;;;5.93;3.27;;;15.30;97.30;;;;;;5072061;28;20530;-81
2021/08/07 05:16:47;;;;;;;3.63;3.10;;;15.30;97.30;;;;;;5070727;28;20462;-81
2021/08/07 05:19:12;;;;;;;5.00;3.30;;;15.40;97.30;;;;;;5069855;28;20185;-81
2021/08/07 05:21:38;;;;;;;7.53;3.07;;;15.50;97.30;;;;;;5067801;28;20206;-82
2021/08/07 05:24:04;;;;;;;4.13;3.20;;;15.50;97.30;;;;;;5072025;28;20198;-81
2021/08/07 05:26:29;;;;;;;5.53;3.20;;;15.50;97.30;;;;;;5071148;28;20172;-81
2021/08/07 05:28:55;;;;;;;7.13;3.47;;;15.60;97.30;;;;;;5070286;28;20178;-81
2021/08/07 05:31:21;;;;;;;4.57;2.90;;;15.60;97.30;;;;;;5089472;28;20195;-81
2021/08/07 05:33:46;;;;;;;6.33;3.13;;;15.70;97.30;;;;;;5070039;28;20178;-81
2021/08/07 05:36:12;;;;;;;13.00;4.03;;;15.70;97.30;;;;;;5069935;28;20175;-81
2021/08/07 05:38:37;;;;;;;4.17;3.17;;;15.80;97.30;;;;;;5068764;28;20175;-80
2021/08/07 05:41:03;;;;;;;7.70;4.40;;;15.90;97.30;;;;;;5072004;28;20179;-81
2021/08/07 05:43:28;;;;;;;4.63;3.23;;;15.90;97.30;;;;;;5071602;28;20167;-80
2021/08/07 05:45:54;;;;;;;4.13;2.60;;;16.00;97.30;;;;;;5068221;28;20184;-81
2021/08/07 05:48:20;;;;;;;7.43;3.00;;;16.00;97.30;;;;;;5089988;28;20176;-81
2021/08/07 05:50:45;;;;;;;3.63;2.90;;;16.00;97.30;;;;;;5069348;28;20664;-81
2021/08/07 05:53:11;;;;;;;6.53;3.17;;;16.10;97.30;;;;;;5069314;28;20425;-82
2021/08/07 05:55:36;;;;;;;5.20;3.43;;;16.10;97.30;;;;;;5070609;28;20572;-81
2021/08/07 05:58:03;;;;;;;4.20;3.20;;;16.10;97.30;;;;;;5072184;28;20194;-81
2021/08/07 06:00:29;;;;;;;4.60;3.07;;;16.20;97.30;;;;;;5071501;28;20290;-82
2021/08/07 06:02:54;;;;;;;4.80;3.30;;;16.30;97.30;;;;;;5087646;28;20556;-80
2021/08/07 06:05:20;;;;;;;6.00;2.57;;;16.30;97.30;;;;;;5069849;28;20171;-81
2021/08/07 06:07:45;;;;;;;4.03;3.00;;;16.40;97.30;;;;;;5088833;28;20179;-81
2021/08/07 06:10:11;;;;;;;4.30;3.33;;;16.50;97.30;;;;;;5068549;28;20167;-82
2021/08/07 06:12:36;;;;;;;6.87;3.50;;;16.50;97.30;;;;;;5065767;28;20223;-81
2021/08/07 06:15:03;;;;;;;3.70;2.53;;;16.60;97.30;;;;;;5073735;28;20179;-82
2021/08/07 06:17:29;;;;;;;4.30;3.70;;;16.70;97.30;;;;;;5067203;28;20242;-81
2021/08/07 06:19:54;;;;;;;3.23;2.50;;;16.90;97.30;;;;;;5066775;28;20422;-81
2021/08/07 06:22:20;;;;;;;3.27;2.60;;;16.90;97.30;;;;;;5067705;28;20211;-82
2021/08/07 06:24:45;;;;;;;3.83;2.97;;;17.00;97.30;;;;;;5066657;28;20216;-81
2021/08/07 06:27:11;;;;;;;6.97;2.73;;;17.10;97.30;;;;;;5063560;28;20641;-82
2021/08/07 06:29:36;;;;;;;5.20;2.50;;;17.20;97.30;;;;;;5072063;28;20179;-82
2021/08/07 06:32:02;;;;;;;8.17;3.10;;;17.20;97.30;;;;;;5144148;22;20670;-87
2021/08/07 06:34:28;;;;;;;4.53;2.30;;;17.30;97.30;;;;;;5118429;28;20178;-87
2021/08/07 06:36:53;;;;;;;2.80;2.57;;;17.30;97.30;;;;;;5118916;28;20419;-87
2021/08/07 06:39:19;;;;;;;4.33;2.20;;;17.30;97.30;;;;;;5101738;28;20397;-87
2021/08/07 06:41:44;;;;;;;2.67;2.33;;;17.30;97.30;;;;;;5081979;28;20209;-87
2021/08/07 06:44:10;;;;;;;2.63;2.50;;;17.40;97.30;;;;;;5058697;28;20251;-87
2021/08/07 06:46:35;;;;;;;2.60;2.20;;;17.40;97.30;;;;;;5061379;28;20197;-87
2021/08/07 06:49:03;;;;;;;2.63;2.43;;;17.40;97.30;;;;;;5074084;28;20183;-88
2021/08/07 06:51:28;;;;;;;3.50;2.33;;;17.50;97.30;;;;;;5095386;28;20223;-87
2021/08/07 06:53:54;;;;;;;4.97;2.17;;;17.60;97.30;;;;;;5077413;28;20515;-87
2021/08/07 06:56:19;;;;;;;4.47;2.47;;;17.60;97.30;;;;;;5077360;28;20178;-87
2021/08/07 06:58:45;;;;;;;4.97;2.70;;;17.80;97.30;;;;;;5077487;28;20191;-87
2021/08/07 07:01:11;;;;;;;4.70;2.10;;;17.80;97.30;;;;;;5075646;28;20210;-87
2021/08/07 07:03:36;;;;;;;2.87;2.10;;;17.90;97.30;;;;;;5061623;28;20178;-88
2021/08/07 07:06:02;;;;;;;2.53;2.40;;;18.00;97.30;;;;;;5074387;28;20188;-87
2021/08/07 07:08:27;;;;;;;5.20;2.40;;;18.00;97.30;;;;;;5069866;28;20167;-86
2021/08/07 07:10:53;;;;;;;3.17;2.00;;;18.10;97.30;;;;;;5068983;28;20722;-87
2021/08/07 07:13:19;;;;;;;3.63;2.17;;;18.20;97.30;;;;;;5076358;28;20220;-87
2021/08/07 07:15:44;;;;;;;2.13;2.00;;;18.30;97.30;;;;;;5069033;28;20413;-87
2021/08/07 07:18:10;;;;;;;3.03;2.00;;;18.40;97.30;;;;;;5096778;28;20174;-87
2021/08/07 07:20:35;;;;;;;4.53;2.17;;;18.50;97.30;;;;;;5073226;28;20669;-88
2021/08/07 07:23:01;;;;;;;2.10;1.80;;;18.60;97.30;;;;;;5086478;28;20252;-87
2021/08/07 07:25:26;;;;;;;4.33;1.60;;;18.60;97.30;;;;;;5073598;28;20553;-88
2021/08/07 07:27:52;;;;;;;2.07;1.70;;;18.70;97.30;;;;;;5076917;28;20166;-88
2021/08/07 07:30:17;;;;;;;2.40;2.00;;;18.80;97.30;;;;;;5095387;28;20700;-88
2021/08/07 07:32:43;;;;;;;3.83;2.20;;;18.90;97.30;;;;;;5073884;28;20658;-88
2021/08/07 07:35:09;;;;;;;5.23;2.10;;;19.00;97.30;;;;;;5078342;28;20185;-87
2021/08/07 07:37:35;;;;;;;5.27;1.90;;;19.10;97.30;;;;;;5073103;28;20258;-88
2021/08/07 07:40:01;;;;;;;2.40;1.80;;;19.20;97.30;;;;;;5078686;28;20467;-88
2021/08/07 07:42:27;;;;;;;2.30;1.83;;;19.20;97.30;;;;;;5075790;28;20199;-88
2021/08/07 07:44:52;;;;;;;1.77;1.73;;;19.40;97.30;;;;;;5076829;28;20423;-88
2021/08/07 07:47:18;;;;;;;2.73;1.77;;;19.50;97.30;;;;;;5077135;28;20691;-89
2021/08/07 07:49:43;;;;;;;2.00;1.90;;;19.60;97.30;;;;;;5077568;28;20170;-88
2021/08/07 07:52:09;;;;;;;2.70;1.80;;;19.60;97.30;;;;;;5075407;28;20884;-89
2021/08/07 07:54:35;;;;;;;2.57;1.80;;;19.60;97.30;;;;;;5068318;28;20233;-88
2021/08/07 07:57:02;;;;;;;3.63;1.70;;;19.70;97.30;;;;;;5074030;28;20178;-89
2021/08/07 07:59:27;;;;;;;2.20;1.77;;;19.80;97.30;;;;;;5066439;28;20183;-88
2021/08/07 08:01:53;;;;;;;2.23;1.57;;;19.80;97.30;;;;;;5070053;28;20479;-88
2021/08/07 08:04:18;;;;;;;2.57;1.60;;;19.90;97.30;;;;;;5060663;28;20182;-89
2021/08/07 08:06:44;;;;;;;2.13;1.77;;;20.00;97.30;;;;;;5075213;28;20175;-88
2021/08/07 08:09:09;;;;;;;3.67;1.80;;;20.10;97.30;;;;;;5078517;28;20209;-88
2021/08/07 08:11:35;;;;;;;2.13;1.70;;;20.20;97.30;;;;;;5076865;28;20190;-88
2021/08/07 08:14:00;;;;;;;2.80;2.20;;;20.20;97.30;;;;;;5059209;28;20270;-88
2021/08/07 08:16:26;;;;;;;4.27;1.50;;;20.30;97.30;;;;;;5070561;28;20183;-88
2021/08/07 08:18:52;;;;;;;1.77;1.67;;;20.30;97.30;;;;;;5057037;28;20179;-88
2021/08/07 08:21:19;;;;;;;1.63;1.57;;;20.40;97.30;;;;;;5056821;28;20987;-88
2021/08/07 08:23:45;;;;;;;2.67;1.80;;;20.40;97.30;;;;;;5073559;28;20656;-88
2021/08/07 08:26:12;;;;;;;2.70;1.60;;;20.40;97.30;;;;;;5060685;28;20943;-89
2021/08/07 08:28:37;;;;;;;4.40;1.70;;;20.50;97.30;;;;;;5072927;28;20397;-88
2021/08/07 08:31:03;;;;;;;1.73;1.60;;;20.60;97.30;;;;;;5071747;28;20537;-88
2021/08/07 08:33:29;;;;;;;2.50;1.30;;;20.60;97.30;;;;;;5071250;28;20417;-89
2021/08/07 08:35:54;;;;;;;6.00;2.30;;;20.70;97.30;;;;;;5072727;28;20258;-88
2021/08/07 08:38:20;;;;;;;2.40;1.53;;;20.70;97.30;;;;;;5055849;28;20189;-88
2021/08/07 08:40:46;;;;;;;2.93;1.80;;;20.80;97.30;;;;;;5053957;28;20683;-89
2021/08/07 08:43:11;;;;;;;1.53;1.40;;;20.80;97.30;;;;;;5055468;28;20421;-88
2021/08/07 08:45:37;;;;;;;2.80;1.77;;;21.00;97.30;;;;;;5056910;28;20525;-89
2021/08/07 08:48:03;;;;;;;2.07;1.83;;;21.10;97.30;;;;;;5056755;28;20198;-88
2021/08/07 08:50:29;;;;;;;3.33;2.17;;;21.20;97.10;;;;;;5057010;28;20609;-88
2021/08/07 08:52:58;;;;;;;5.10;1.80;;;21.30;97.30;;;;;;5057117;28;20417;-88
2021/08/07 08:55:24;;;;;;;2.90;1.50;;;21.40;97.20;;;;;;5055893;28;20834;-88
2021/08/07 08:57:50;;;;;;;1.90;1.60;;;21.50;95.20;;;;;;5056285;28;20413;-89
2021/08/07 09:00:16;;;;;;;1.80;1.30;;;21.50;95.40;;;;;;5073931;28;20175;-88
2021/08/07 09:02:42;;;;;;;4.83;1.53;;;21.60;94.90;;;;;;5055698;28;20998;-89
2021/08/07 09:05:10;;;;;;;2.37;1.77;;;21.60;96.00;;;;;;5055167;28;20206;-86
2021/08/07 09:07:36;;;;;;;1.27;1.17;;;21.70;94.90;;;;;;5055012;28;20424;-88
2021/08/07 09:10:02;;;;;;;1.63;1.50;;;21.70;94.70;;;;;;5054893;28;20429;-89
2021/08/07 09:12:46;;;;;;;4.07;1.43;;;21.80;96.50;;;;;;5055062;28;20182;-89
2021/08/07 09:15:35;;;;;;;3.30;1.40;;;21.90;94.80;;;;;;5072988;28;20417;-88
2021/08/07 09:18:10;;;;;;;3.73;1.50;;;22.00;95.10;;;;;;5073766;28;20412;-88
2021/08/07 09:20:36;;;;;;;2.20;1.30;;;22.10;96.20;;;;;;5075775;28;20447;-88
2021/08/07 09:23:02;;;;;;;2.27;1.60;;;22.10;93.80;;;;;;5076168;28;20456;-89
2021/08/07 09:25:43;;;;;;;4.77;1.83;;;22.10;92.90;;;;;;5076247;28;20438;-88
2021/08/07 09:28:09;;;;;;;3.33;1.50;;;22.20;92.30;;;;;;5076109;28;20171;-88
2021/08/07 09:30:38;;;;;;;2.67;1.60;;;22.20;92.90;;;;;;5075342;28;20436;-88
2021/08/07 09:33:12;;;;;;;2.80;1.53;;;22.30;92.90;;;;;;5075173;28;20945;-88
2021/08/07 09:35:40;;;;;;;3.27;1.40;;;22.30;91.70;;;;;;5075424;28;20432;-88
2021/08/07 09:38:22;;;;;;;3.17;1.60;;;22.30;91.60;;;;;;5075045;28;20409;-89
2021/08/07 09:40:58;;;;;;;2.60;1.60;;;22.40;92.10;;;;;;5074383;28;20793;-88
2021/08/07 09:43:30;;;;;;;2.60;1.60;;;22.50;93.60;;;;;;5074203;28;20933;-88
2021/08/07 09:45:59;;;;;;;1.57;1.47;;;22.50;92.70;;;;;;5074389;28;20408;-88
2021/08/07 09:48:43;;;;;;;1.63;1.50;;;22.70;93.70;;;;;;5073084;28;20409;-87
2021/08/07 09:51:20;;;;;;;2.70;1.60;;;22.80;92.50;;;;;;5068325;28;20483;-89
2021/08/07 09:54:01;;;;;;;1.47;1.43;;;22.90;93.10;;;;;;5078128;28;20416;-88
2021/08/07 09:56:39;;;;;;;2.27;1.70;;;22.90;90.90;;;;;;5065897;28;21079;-88
2021/08/07 09:59:10;;;;;;;2.97;1.60;;;22.90;90.50;;;;;;5087178;28;20414;-88
2021/08/07 10:01:36;;;;;;;2.30;1.37;;;23.00;90.10;;;;;;5074483;28;20501;-89
2021/08/07 10:04:11;;;;;;;1.60;1.23;;;23.00;91.70;;;;;;5068567;28;20491;-88
2021/08/07 10:06:37;;;;;;;2.20;1.63;;;23.10;92.00;;;;;;5068671;28;20423;-88
2021/08/07 10:09:04;;;;;;;1.83;1.50;;;23.00;92.10;;;;;;5071663;28;20462;-88
2021/08/07 10:11:30;;;;;;;1.57;1.43;;;23.00;91.80;;;;;;5067953;28;20459;-88
2021/08/07 10:13:56;;;;;;;2.23;1.50;;;23.20;93.90;;;;;;5069932;28;20420;-88
2021/08/07 10:16:22;;;;;;;2.47;1.87;;;23.20;92.30;;;;;;5078240;28;20523;-88
2021/08/07 10:18:50;;;;;;;1.83;1.40;;;23.20;91.20;;;;;;5073213;28;20432;-88
2021/08/07 10:21:16;;;;;;;3.53;1.80;;;23.30;91.40;;;;;;5060414;28;20464;-88
2021/08/07 10:23:42;;;;;;;5.10;2.20;;;23.30;91.90;;;;;;5060570;28;20887;-88
2021/08/07 10:26:10;;;;;;;2.27;1.80;;;23.30;91.90;;;;;;5057341;28;20467;-88
2021/08/07 10:28:42;;;;;;;1.93;1.70;;;23.30;91.90;;;;;;5059262;28;20171;-88
2021/08/07 10:31:12;;;;;;;3.17;1.77;;;23.30;91.30;;;;;;5088742;28;20959;-88
2021/08/07 10:33:42;;;;;;;2.73;1.50;;;23.30;91.20;;;;;;5047613;28;20429;-88
2021/08/07 10:36:08;;;;;;;2.63;1.90;;;23.30;91.50;;;;;;5066368;28;20501;-88
2021/08/07 10:38:36;;;;;;;1.90;1.50;;;23.40;93.10;;;;;;5063989;28;20445;-88
2021/08/07 10:41:05;;;;;;;3.10;1.70;;;23.50;90.90;;;;;;5050361;28;20206;-88
2021/08/07 10:43:36;;;;;;;3.03;1.17;;;23.50;89.70;;;;;;5046163;28;20410;-88
2021/08/07 10:46:07;;;;;;;3.60;1.73;;;23.50;88.10;;;;;;5050839;28;20460;-89
2021/08/07 10:48:39;;;;;;;1.83;1.40;;;23.60;88.90;;;;;;5047561;28;20409;-88
2021/08/07 10:51:22;;;;;;;1.63;1.27;;;23.70;88.90;;;;;;5046308;28;20439;-87
2021/08/07 10:53:48;;;;;;;2.03;1.30;;;23.70;88.60;;;;;;5044096;28;20829;-88
2021/08/07 10:56:40;;;;;;;2.83;1.53;;;23.70;87.90;;;;;;5043547;28;20409;-88
2021/08/07 10:59:09;;;;;;;2.60;1.47;;;23.70;89.70;;;;;;5045968;28;20858;-88
2021/08/07 11:01:35;;;;;;;2.13;1.53;;;23.70;89.70;;;;;;5044437;28;20485;-87
2021/08/07 11:04:00;;;;;;;1.43;1.33;;;23.80;87.20;;;;;;5045654;28;20898;-88
2021/08/07 11:06:44;;;;;;;4.20;1.30;;;23.90;88.20;;;;;;5046580;28;20555;-88
2021/08/07 11:09:27;;;;;;;1.53;1.30;;;24.10;88.40;;;;;;5049196;28;20175;-89
2021/08/07 11:12:18;;;;;;;2.40;1.43;;;24.20;89.20;;;;;;5048212;28;20442;-87
2021/08/07 11:15:06;;;;;;;1.60;1.53;;;24.40;86.70;;;;;;5048952;28;20441;-88
2021/08/07 11:17:38;;;;;;;3.10;1.70;;;24.30;86.70;;;;;;5061234;28;20414;-88
2021/08/07 11:20:38;;;;;;;2.57;1.40;;;24.30;87.10;;;;;;5045371;28;20409;-88
2021/08/07 11:23:08;;;;;;;2.00;1.30;;;24.30;86.40;;;;;;5048241;28;20456;-88
2021/08/07 11:26:12;;;;;;;1.77;1.47;;;24.40;85.30;;;;;;5047554;28;20936;-88
2021/08/07 11:29:04;;;;;;;3.30;1.47;;;24.60;86.70;;;;;;4928770;28;20419;-88
2021/08/07 11:31:33;;;;;;;1.67;1.50;;;24.60;85.30;;;;;;5055932;28;20526;-89
2021/08/07 11:34:21;;;;;;;2.47;1.40;;;24.70;87.80;;;;;;5059551;28;20514;-88
2021/08/07 11:37:14;;;;;;;3.03;1.40;;;24.80;87.90;;;;;;5059726;28;20417;-88
2021/08/07 11:40:06;;;;;;;2.10;1.30;;;25.00;87.60;;;;;;5057494;28;20426;-86
2021/08/07 11:42:41;;;;;;;3.53;1.50;;;24.90;83.70;;;;;;5062416;28;20472;-87
2021/08/07 11:45:07;;;;;;;2.00;1.50;;;24.90;86.00;;;;;;5066897;28;20405;-87
2021/08/07 11:47:47;;;;;;;2.50;1.47;;;24.90;84.50;;;;;;5062851;28;20407;-89
2021/08/07 11:50:14;;;;;;;2.20;1.37;;;25.00;84.30;;;;;;5063913;28;20405;-88
2021/08/07 11:52:39;;;;;;;1.47;1.07;;;24.90;84.90;;;;;;5063863;28;20488;-88
2021/08/07 11:55:05;;;;;;;2.90;1.30;;;24.90;84.10;;;;;;5063886;28;20417;-88
2021/08/07 11:57:31;;;;;;;1.57;1.37;;;24.90;85.40;;;;;;5068068;28;20278;-88
2021/08/07 12:00:23;;;;;;;2.93;1.97;;;24.80;83.90;;;;;;5070506;28;20653;-88
2021/08/07 12:03:00;;;;;;;2.10;1.50;;;24.70;84.90;;;;;;5071900;28;20195;-88
2021/08/07 12:05:26;;;;;;;1.40;1.20;;;24.80;86.50;;;;;;5068192;28;20422;-88
2021/08/07 12:08:09;;;;;;;1.67;1.50;;;25.00;83.50;;;;;;5053186;28;20802;-89
2021/08/07 12:10:56;;;;;;;4.30;1.70;;;25.10;82.70;;;;;;5050974;28;20274;-88
2021/08/07 12:13:30;;;;;;;2.40;1.60;;;25.30;84.30;;;;;;5052001;28;20406;-89
2021/08/07 12:16:09;;;;;;;1.37;1.00;;;25.40;83.50;;;;;;5053572;28;20491;-89
2021/08/07 12:18:45;;;;;;;3.03;1.30;;;25.60;83.20;;;;;;5072683;28;20432;-89
2021/08/07 12:21:25;;;;;;;3.53;1.47;;;25.60;82.50;;;;;;5072504;28;20452;-88
2021/08/07 12:23:53;;;;;;;2.57;1.60;;;25.60;83.20;;;;;;5072406;28;20421;-88
2021/08/07 12:26:20;;;;;;;1.30;1.20;;;25.50;83.20;;;;;;5073110;28;20885;-88
2021/08/07 12:28:46;;;;;;;1.57;1.47;;;25.60;84.90;;;;;;5073042;28;20402;-87
2021/08/07 12:33:44;;;;;;;3.10;1.40;;;25.60;86.20;;;;;;5049012;28;20466;-84
2021/08/07 12:36:11;;;;;;;1.30;1.20;;;25.60;85.10;;;;;;5035040;28;20920;-83
2021/08/07 12:38:41;;;;;;;1.27;1.20;;;25.40;82.20;;;;;;5034642;28;20422;-83
2021/08/07 12:41:07;;;;;;;1.87;1.30;;;25.30;82.80;;;;;;5034652;28;20807;-81
2021/08/07 12:43:34;;;;;;;2.60;1.30;;;25.20;82.80;;;;;;5016319;28;20510;-83
2021/08/07 12:46:02;;;;;;;1.67;1.20;;;25.20;84.30;;;;;;5033022;28;20184;-83
2021/08/07 12:48:56;;;;;;;2.63;1.20;;;25.20;83.30;;;;;;5017065;28;20458;-83
2021/08/07 12:51:27;;;;;;;4.03;1.40;;;25.30;84.10;;;;;;5016303;28;20427;-83
2021/08/07 12:53:54;;;;;;;2.33;1.40;;;25.20;83.30;;;;;;5016025;28;20423;-83